Time;durP1;ratioP1;P1;durP2;ratioP2;P2;SDS_P1;SDS_P2;PMS_P1;PMS_P2;Temp;Humidity;BMP_temperature;BMP_pressure;BME280_temperature;BME280_humidity;BME280_pressure;Samples;Min_cycle;Max_cycle;Signal;HPM_P1;HPM_P2
2023/05/26 00:00:16;;;;;;;20.47;5.13;;;9.40;99.90;;;;;;5155737;27;20202;-78
2023/05/26 00:02:43;;;;;;;21.23;5.40;;;9.30;99.90;;;;;;5141404;27;20653;-77
2023/05/26 00:05:10;;;;;;;21.00;4.30;;;9.20;99.90;;;;;;5139658;27;20225;-77
2023/05/26 00:07:39;;;;;;;18.70;4.40;;;9.10;99.90;;;;;;5137084;27;20295;-78
2023/05/26 00:10:07;;;;;;;22.27;4.50;;;9.00;99.90;;;;;;5146763;27;20239;-76
2023/05/26 00:12:34;;;;;;;20.10;4.47;;;9.00;99.90;;;;;;5136177;27;20200;-77
2023/05/26 00:15:01;;;;;;;16.90;4.37;;;8.90;99.90;;;;;;5133566;27;20212;-77
2023/05/26 00:17:29;;;;;;;19.03;4.37;;;8.90;99.90;;;;;;5143111;27;20210;-76
2023/05/26 00:19:59;;;;;;;16.73;4.00;;;8.90;99.90;;;;;;5128078;27;20192;-76
2023/05/26 00:22:27;;;;;;;18.33;3.97;;;9.00;99.90;;;;;;5131394;27;20213;-77
2023/05/26 00:24:53;;;;;;;18.63;5.57;;;9.00;99.90;;;;;;5142239;27;20247;-76
2023/05/26 00:27:20;;;;;;;16.00;4.23;;;9.00;99.90;;;;;;5144563;27;20210;-77
2023/05/26 00:29:48;;;;;;;18.37;4.40;;;9.00;99.90;;;;;;5147483;27;20261;-76
2023/05/26 00:32:16;;;;;;;15.77;4.70;;;9.00;99.90;;;;;;5139188;27;20200;-78
2023/05/26 00:34:44;;;;;;;21.57;4.83;;;8.90;99.90;;;;;;5135210;27;20221;-78
2023/05/26 00:37:11;;;;;;;21.13;5.33;;;8.80;99.90;;;;;;5133735;27;20207;-77
2023/05/26 00:39:38;;;;;;;22.53;3.97;;;8.80;99.90;;;;;;5141228;27;20200;-77
2023/05/26 00:42:05;;;;;;;23.27;4.50;;;8.90;99.90;;;;;;5141765;27;20204;-77
2023/05/26 00:44:32;;;;;;;19.43;4.20;;;8.80;99.90;;;;;;5122161;27;20232;-76
2023/05/26 00:46:59;;;;;;;20.27;4.30;;;8.90;99.90;;;;;;5140552;27;20197;-77
2023/05/26 00:49:26;;;;;;;17.00;4.43;;;8.80;99.90;;;;;;5149614;27;20200;-78
2023/05/26 00:51:54;;;;;;;24.60;5.13;;;8.70;99.90;;;;;;5150808;27;20291;-77
2023/05/26 00:54:22;;;;;;;23.70;4.70;;;8.70;99.90;;;;;;5133642;27;20236;-77
2023/05/26 00:56:51;;;;;;;23.63;4.77;;;8.70;99.90;;;;;;5134185;27;20457;-77
2023/05/26 00:59:19;;;;;;;20.03;4.80;;;8.60;99.90;;;;;;5131475;27;20204;-77
2023/05/26 01:01:46;;;;;;;19.07;4.17;;;8.60;99.90;;;;;;5139115;27;20211;-77
2023/05/26 01:04:13;;;;;;;17.30;4.10;;;8.60;99.90;;;;;;5137336;27;20684;-76
2023/05/26 01:06:40;;;;;;;22.90;4.27;;;8.70;99.90;;;;;;5122836;27;20216;-77
2023/05/26 01:09:08;;;;;;;16.73;4.43;;;8.60;99.90;;;;;;5125489;27;20617;-76
2023/05/26 01:11:40;;;;;;;20.90;4.20;;;8.50;99.90;;;;;;5126548;27;20208;-77
2023/05/26 01:14:13;;;;;;;16.00;4.40;;;8.60;99.90;;;;;;5130888;27;20226;-77
2023/05/26 01:16:46;;;;;;;18.57;3.80;;;8.50;99.90;;;;;;5138237;27;20569;-77
2023/05/26 01:19:46;;;;;;;15.83;4.37;;;8.40;99.90;;;;;;5133848;27;20204;-78
2023/05/26 01:22:23;;;;;;;16.80;4.40;;;8.30;99.90;;;;;;5131049;27;20218;-78
2023/05/26 01:25:00;;;;;;;19.10;4.90;;;8.40;99.90;;;;;;5146486;27;20242;-77
2023/05/26 01:27:42;;;;;;;24.43;4.77;;;8.30;99.90;;;;;;5136419;28;20196;-77
2023/05/26 01:30:11;;;;;;;22.80;4.80;;;8.30;99.90;;;;;;5146828;27;20200;-78
2023/05/26 01:32:38;;;;;;;20.00;3.97;;;8.20;99.90;;;;;;5138260;27;20300;-77
2023/05/26 01:35:06;;;;;;;18.57;3.93;;;8.20;99.90;;;;;;5154026;27;20709;-77
2023/05/26 01:37:33;;;;;;;18.50;3.83;;;8.20;99.90;;;;;;5135867;28;20200;-77
2023/05/26 01:40:00;;;;;;;18.07;4.20;;;8.30;99.90;;;;;;5146685;27;20192;-78
2023/05/26 01:42:30;;;;;;;23.50;4.90;;;8.20;99.90;;;;;;5146334;27;20200;-77
2023/05/26 01:45:00;;;;;;;20.00;6.20;;;8.20;99.90;;;;;;5140621;27;20608;-77
2023/05/26 01:47:30;;;;;;;20.50;5.10;;;8.20;99.90;;;;;;5159100;27;20191;-78
2023/05/26 01:50:00;;;;;;;16.40;3.87;;;8.10;99.90;;;;;;5144270;27;20205;-77
2023/05/26 01:52:28;;;;;;;19.20;5.57;;;8.10;99.90;;;;;;5148111;27;20315;-77
2023/05/26 01:55:00;;;;;;;21.57;4.50;;;8.20;99.90;;;;;;5145540;27;20280;-77
2023/05/26 01:57:29;;;;;;;18.70;5.43;;;8.10;99.90;;;;;;5140863;27;20608;-76
2023/05/26 01:59:56;;;;;;;19.93;4.77;;;8.00;99.90;;;;;;5137715;27;20204;-77
2023/05/26 02:02:23;;;;;;;17.50;4.07;;;8.00;99.90;;;;;;5147040;27;20233;-78
2023/05/26 02:04:51;;;;;;;17.83;3.53;;;8.10;99.90;;;;;;5125605;27;20257;-77
2023/05/26 02:07:19;;;;;;;23.03;4.43;;;8.00;99.90;;;;;;5136426;28;20822;-75
2023/05/26 02:09:45;;;;;;;14.03;3.90;;;8.00;99.90;;;;;;5140010;27;20204;-78
2023/05/26 02:12:13;;;;;;;22.33;4.37;;;8.20;99.90;;;;;;5139284;27;20205;-77
2023/05/26 02:14:39;;;;;;;19.90;5.07;;;8.10;99.90;;;;;;5141350;27;20219;-77
2023/05/26 02:17:07;;;;;;;20.33;4.67;;;8.10;99.90;;;;;;5146036;27;20263;-78
2023/05/26 02:19:34;;;;;;;16.57;4.37;;;7.90;99.90;;;;;;5135514;28;20203;-76
2023/05/26 02:22:02;;;;;;;18.23;4.30;;;8.00;99.90;;;;;;5139377;27;20575;-77
2023/05/26 02:24:29;;;;;;;19.63;4.80;;;7.90;99.90;;;;;;5139090;27;20285;-77
2023/05/26 02:26:55;;;;;;;17.63;4.63;;;7.90;99.90;;;;;;5150234;27;20201;-77
2023/05/26 02:29:22;;;;;;;17.17;5.37;;;7.80;99.90;;;;;;5156979;27;20647;-77
2023/05/26 02:31:49;;;;;;;16.53;4.20;;;7.90;99.90;;;;;;5140812;27;20212;-77
2023/05/26 02:34:16;;;;;;;20.17;3.90;;;7.80;99.90;;;;;;5142704;27;20240;-77
2023/05/26 02:36:43;;;;;;;21.87;4.63;;;7.70;99.90;;;;;;5158751;27;20211;-77
2023/05/26 02:39:11;;;;;;;20.83;4.73;;;7.70;99.90;;;;;;5143231;27;20200;-77
2023/05/26 02:41:38;;;;;;;22.23;5.27;;;7.70;99.90;;;;;;5142123;27;20606;-77
2023/05/26 02:44:05;;;;;;;21.13;5.57;;;7.70;99.90;;;;;;5136458;27;20696;-77
2023/05/26 02:46:32;;;;;;;20.43;4.47;;;7.70;99.90;;;;;;5138384;27;20291;-77
2023/05/26 02:49:00;;;;;;;19.90;4.40;;;7.70;99.90;;;;;;5157775;27;20207;-78
2023/05/26 02:51:27;;;;;;;22.73;4.10;;;7.70;99.90;;;;;;5153371;27;20219;-78
2023/05/26 02:53:53;;;;;;;17.90;4.57;;;7.50;99.90;;;;;;5142839;27;20231;-77
2023/05/26 02:56:22;;;;;;;20.30;5.23;;;7.60;99.90;;;;;;5138119;27;20196;-78
2023/05/26 02:58:48;;;;;;;17.03;4.00;;;7.50;99.90;;;;;;5139197;27;20200;-78
2023/05/26 03:01:16;;;;;;;20.13;5.00;;;7.50;99.90;;;;;;5154296;27;20210;-77
2023/05/26 03:03:43;;;;;;;22.33;5.23;;;7.60;99.90;;;;;;5142913;27;20255;-77
2023/05/26 03:06:10;;;;;;;28.87;5.47;;;7.60;99.90;;;;;;5132889;27;20228;-77
2023/05/26 03:08:37;;;;;;;16.67;3.70;;;7.50;99.90;;;;;;5140128;27;20685;-77
2023/05/26 03:11:05;;;;;;;19.17;4.97;;;7.40;99.90;;;;;;5136594;27;20201;-76
2023/05/26 03:13:33;;;;;;;19.50;4.73;;;7.40;99.90;;;;;;5155492;27;20226;-78
2023/05/26 03:16:00;;;;;;;19.00;5.63;;;7.40;99.90;;;;;;5144773;27;20208;-76
2023/05/26 03:18:26;;;;;;;18.83;4.27;;;7.30;99.90;;;;;;5134851;27;20257;-76
2023/05/26 03:20:54;;;;;;;23.00;4.80;;;7.30;99.90;;;;;;5128195;27;20197;-77
2023/05/26 03:23:21;;;;;;;20.20;5.00;;;7.30;99.90;;;;;;5123503;27;20237;-77
2023/05/26 03:25:48;;;;;;;19.13;5.33;;;7.30;99.90;;;;;;5129444;27;20600;-77
2023/05/26 03:28:15;;;;;;;23.23;5.27;;;7.40;99.90;;;;;;5145613;27;20814;-78
2023/05/26 03:30:43;;;;;;;22.50;4.53;;;7.30;99.90;;;;;;5146749;27;20196;-77
2023/05/26 03:33:09;;;;;;;23.13;5.40;;;7.30;99.90;;;;;;5142233;27;20287;-78
2023/05/26 03:35:37;;;;;;;20.33;4.60;;;7.30;99.90;;;;;;5151557;27;20287;-78
2023/05/26 03:38:04;;;;;;;22.17;4.80;;;7.30;99.90;;;;;;5150950;27;20674;-78
2023/05/26 03:40:30;;;;;;;21.67;4.40;;;7.30;99.90;;;;;;5151896;27;20203;-78
2023/05/26 03:42:57;;;;;;;22.73;5.47;;;7.40;99.90;;;;;;5152970;27;20290;-77
2023/05/26 03:45:24;;;;;;;22.33;5.60;;;7.30;99.90;;;;;;5164128;27;20279;-77
2023/05/26 03:47:52;;;;;;;19.90;5.33;;;7.40;99.90;;;;;;5154898;27;20215;-77
2023/05/26 03:50:19;;;;;;;25.90;4.67;;;7.40;99.90;;;;;;5134296;27;20205;-77
2023/05/26 03:52:46;;;;;;;20.83;4.60;;;7.40;99.90;;;;;;5139816;27;20209;-76
2023/05/26 03:55:17;;;;;;;15.77;4.27;;;7.40;99.90;;;;;;5137109;27;20228;-77
2023/05/26 03:57:44;;;;;;;18.87;4.27;;;7.50;99.90;;;;;;5154320;27;20205;-78
2023/05/26 04:00:12;;;;;;;20.10;5.20;;;7.50;99.90;;;;;;5143057;27;20304;-78
2023/05/26 04:02:38;;;;;;;19.73;4.60;;;7.50;99.90;;;;;;5148029;27;20686;-77
2023/05/26 04:05:08;;;;;;;17.43;5.47;;;7.60;99.90;;;;;;5142453;27;20230;-77
2023/05/26 04:07:35;;;;;;;18.57;5.30;;;7.70;99.90;;;;;;5152565;27;20206;-77
2023/05/26 04:10:01;;;;;;;21.63;4.57;;;7.80;99.90;;;;;;5157101;27;20203;-77
2023/05/26 04:12:28;;;;;;;20.87;5.23;;;7.80;99.90;;;;;;5144598;27;20216;-78
2023/05/26 04:14:55;;;;;;;23.97;5.90;;;7.70;99.90;;;;;;5148131;27;20308;-79
2023/05/26 04:17:23;;;;;;;18.33;4.90;;;7.90;99.90;;;;;;5152948;27;20275;-77
2023/05/26 04:19:50;;;;;;;20.57;5.70;;;7.90;99.90;;;;;;5129964;27;20200;-78
2023/05/26 04:22:20;;;;;;;24.73;5.37;;;8.10;99.90;;;;;;5126927;27;20243;-77
2023/05/26 04:24:47;;;;;;;13.47;4.33;;;8.10;99.90;;;;;;5126116;27;20221;-78
2023/05/26 04:27:14;;;;;;;18.03;5.00;;;8.10;99.90;;;;;;5120994;27;20201;-78
2023/05/26 04:29:41;;;;;;;23.83;4.83;;;8.10;99.90;;;;;;5122109;27;20209;-79
2023/05/26 04:32:09;;;;;;;23.67;5.17;;;8.20;99.90;;;;;;5129205;27;20200;-78
2023/05/26 04:34:37;;;;;;;15.93;4.70;;;8.30;99.90;;;;;;5126324;27;20767;-77
2023/05/26 04:37:04;;;;;;;22.40;4.73;;;8.20;99.90;;;;;;5134813;27;20262;-78
2023/05/26 04:39:32;;;;;;;21.80;5.13;;;8.20;99.90;;;;;;5135869;27;20200;-79
2023/05/26 04:42:02;;;;;;;28.27;5.10;;;8.40;99.90;;;;;;5107576;27;20223;-80
2023/05/26 04:44:30;;;;;;;29.03;7.17;;;8.30;99.90;;;;;;5118708;27;20680;-79
2023/05/26 04:47:00;;;;;;;22.97;5.27;;;8.40;99.90;;;;;;5126304;27;20286;-77
2023/05/26 04:49:29;;;;;;;24.07;4.63;;;8.50;99.90;;;;;;5117433;27;20208;-77
2023/05/26 04:51:57;;;;;;;14.70;4.33;;;8.40;99.90;;;;;;5119322;27;20227;-77
2023/05/26 04:54:24;;;;;;;27.73;4.93;;;8.40;99.90;;;;;;5117207;27;20237;-78
2023/05/26 04:56:53;;;;;;;19.43;4.97;;;8.50;99.90;;;;;;5124392;27;20646;-77
2023/05/26 04:59:21;;;;;;;17.97;4.73;;;8.40;99.90;;;;;;5121675;27;20660;-78
2023/05/26 05:01:48;;;;;;;23.30;5.33;;;8.50;99.90;;;;;;5131120;27;20224;-78
2023/05/26 05:04:21;;;;;;;23.27;4.60;;;8.40;99.90;;;;;;5131612;27;20233;-77
2023/05/26 05:06:48;;;;;;;26.47;4.47;;;8.50;99.90;;;;;;5128163;27;20269;-78
2023/05/26 05:09:15;;;;;;;18.97;4.50;;;8.60;99.90;;;;;;5126579;27;20287;-77
2023/05/26 05:11:42;;;;;;;21.63;5.20;;;8.60;99.90;;;;;;5134970;27;20215;-77
2023/05/26 05:14:11;;;;;;;15.83;4.53;;;8.70;99.90;;;;;;5125180;27;20235;-78
2023/05/26 05:16:38;;;;;;;19.37;4.03;;;8.70;99.90;;;;;;5133430;27;20204;-79
2023/05/26 05:19:05;;;;;;;16.30;4.50;;;8.80;99.90;;;;;;5130664;27;20235;-78
2023/05/26 05:21:32;;;;;;;19.60;4.90;;;8.70;99.90;;;;;;5117683;27;20215;-78
2023/05/26 05:23:59;;;;;;;24.07;5.20;;;8.70;99.90;;;;;;5129783;27;20220;-78
2023/05/26 05:26:26;;;;;;;16.03;4.70;;;9.00;99.90;;;;;;5135022;27;20809;-77
2023/05/26 05:28:52;;;;;;;17.43;4.43;;;9.10;99.90;;;;;;5126601;27;20207;-77
2023/05/26 05:31:21;;;;;;;16.63;4.30;;;9.20;99.90;;;;;;5129175;28;20632;-79
2023/05/26 05:33:48;;;;;;;19.03;4.60;;;9.20;99.90;;;;;;5129626;27;20315;-76
2023/05/26 05:36:17;;;;;;;17.93;4.57;;;9.10;99.90;;;;;;5135994;28;20204;-78
2023/05/26 05:38:43;;;;;;;16.07;4.10;;;9.20;99.90;;;;;;5133801;28;20215;-78
2023/05/26 05:41:10;;;;;;;20.83;4.83;;;9.20;99.90;;;;;;5130058;27;20200;-78
2023/05/26 05:43:37;;;;;;;21.00;4.90;;;9.30;99.90;;;;;;5126944;28;20217;-77
2023/05/26 05:46:05;;;;;;;17.57;4.90;;;9.30;99.90;;;;;;5128943;27;20225;-77
2023/05/26 05:48:33;;;;;;;19.30;4.50;;;9.30;99.90;;;;;;5135491;27;20211;-77
2023/05/26 05:51:00;;;;;;;24.53;5.87;;;9.20;99.90;;;;;;5129967;28;20211;-78
2023/05/26 05:53:27;;;;;;;26.13;4.90;;;9.30;99.90;;;;;;5122626;27;20228;-79
2023/05/26 05:55:54;;;;;;;21.23;5.20;;;9.30;99.90;;;;;;5139719;27;20561;-79
2023/05/26 05:58:21;;;;;;;20.67;5.67;;;9.50;99.90;;;;;;5129351;27;20227;-77
2023/05/26 06:00:48;;;;;;;22.70;4.70;;;9.60;99.90;;;;;;5139558;27;20577;-77
2023/05/26 06:03:15;;;;;;;18.73;4.53;;;9.80;99.90;;;;;;5133498;27;20208;-77
2023/05/26 06:05:43;;;;;;;20.20;4.50;;;9.70;99.90;;;;;;5131071;27;20287;-79
2023/05/26 06:08:10;;;;;;;23.63;5.10;;;9.70;99.90;;;;;;5134674;27;20196;-79
2023/05/26 06:10:37;;;;;;;20.07;4.33;;;10.00;99.90;;;;;;5129653;27;20307;-78
2023/05/26 06:13:04;;;;;;;15.10;4.17;;;10.10;99.90;;;;;;5141098;27;20295;-78
2023/05/26 06:15:30;;;;;;;20.53;4.70;;;10.10;99.90;;;;;;5125725;27;20646;-78
2023/05/26 06:17:57;;;;;;;17.63;4.80;;;10.20;99.90;;;;;;5126256;27;20660;-78
2023/05/26 06:20:24;;;;;;;15.67;4.47;;;10.20;99.90;;;;;;5134894;27;20205;-76
2023/05/26 06:22:52;;;;;;;18.77;4.27;;;10.30;99.90;;;;;;5140500;27;20204;-77
2023/05/26 06:25:19;;;;;;;21.37;5.00;;;10.20;99.90;;;;;;5130709;27;20239;-78
2023/05/26 06:27:46;;;;;;;21.97;4.83;;;10.40;99.90;;;;;;5130168;27;20204;-75
2023/05/26 06:30:13;;;;;;;17.53;4.70;;;10.40;99.90;;;;;;5126286;27;20210;-76
2023/05/26 06:32:41;;;;;;;17.53;4.40;;;10.40;99.90;;;;;;5122425;27;20220;-78
2023/05/26 06:35:08;;;;;;;22.47;4.57;;;10.20;99.90;;;;;;5130746;27;20217;-77
2023/05/26 06:37:35;;;;;;;20.33;4.20;;;10.30;99.90;;;;;;5131077;27;20772;-77
2023/05/26 06:40:04;;;;;;;20.90;5.30;;;10.40;99.90;;;;;;5127282;27;20223;-77
2023/05/26 06:42:30;;;;;;;16.37;4.50;;;10.30;99.90;;;;;;5134466;27;20573;-76
2023/05/26 06:44:57;;;;;;;21.80;5.43;;;10.50;99.90;;;;;;5124486;27;20232;-77
2023/05/26 06:47:24;;;;;;;18.93;4.80;;;10.60;99.90;;;;;;5141261;27;20215;-80
2023/05/26 06:49:51;;;;;;;23.47;6.07;;;10.50;99.90;;;;;;5137895;27;20196;-77
2023/05/26 06:52:18;;;;;;;18.93;5.27;;;10.50;99.90;;;;;;5128007;27;20211;-77
2023/05/26 06:54:45;;;;;;;18.73;4.73;;;10.50;99.90;;;;;;5127337;27;20220;-75
2023/05/26 06:57:13;;;;;;;24.07;4.97;;;10.60;99.90;;;;;;5125908;27;20200;-78
2023/05/26 06:59:40;;;;;;;17.67;4.67;;;10.40;99.90;;;;;;5125109;27;20253;-79
2023/05/26 07:02:07;;;;;;;22.73;5.37;;;10.60;99.90;;;;;;5138690;27;20578;-77
2023/05/26 07:04:34;;;;;;;19.13;5.17;;;10.70;99.90;;;;;;5141822;27;20666;-76
2023/05/26 07:07:01;;;;;;;20.73;4.90;;;10.90;99.90;;;;;;5137759;27;20221;-77
2023/05/26 07:09:27;;;;;;;20.13;4.93;;;10.80;99.90;;;;;;5133744;27;20205;-76
2023/05/26 07:11:54;;;;;;;21.37;4.60;;;10.80;99.90;;;;;;5131732;27;20205;-76
2023/05/26 07:14:23;;;;;;;26.17;5.53;;;10.90;99.90;;;;;;5129893;27;20227;-79
2023/05/26 07:16:50;;;;;;;18.73;4.50;;;11.00;99.90;;;;;;5131997;27;20201;-79
2023/05/26 07:19:17;;;;;;;23.20;5.83;;;11.30;99.90;;;;;;5128664;27;20215;-77
2023/05/26 07:21:43;;;;;;;17.37;4.50;;;11.30;99.90;;;;;;5128976;27;20217;-78
2023/05/26 07:24:10;;;;;;;22.67;5.40;;;11.30;99.90;;;;;;5134033;27;20231;-77
2023/05/26 07:26:37;;;;;;;19.60;4.43;;;11.20;99.90;;;;;;5137047;27;20226;-78
2023/05/26 07:29:04;;;;;;;22.03;4.77;;;11.40;99.90;;;;;;5129064;27;20211;-77
2023/05/26 07:31:32;;;;;;;20.03;4.77;;;11.30;99.90;;;;;;5133679;27;20205;-77
2023/05/26 07:33:59;;;;;;;21.33;4.70;;;11.50;99.90;;;;;;5130056;27;20235;-78
2023/05/26 07:36:26;;;;;;;18.40;4.97;;;11.60;99.90;;;;;;5131623;27;20208;-78
2023/05/26 07:38:53;;;;;;;27.37;6.07;;;11.50;99.90;;;;;;5131395;27;20273;-78
2023/05/26 07:41:25;;;;;;;20.87;4.93;;;11.50;99.90;;;;;;5125155;27;20201;-78
2023/05/26 07:43:52;;;;;;;22.73;5.27;;;11.70;99.90;;;;;;5132039;27;20225;-78
2023/05/26 07:46:19;;;;;;;21.90;5.57;;;11.60;99.90;;;;;;5126379;27;20228;-78
2023/05/26 07:48:47;;;;;;;21.37;5.17;;;11.70;99.90;;;;;;5133958;27;20212;-77
2023/05/26 07:51:15;;;;;;;19.37;4.97;;;12.00;99.90;;;;;;5127461;27;20219;-76
2023/05/26 07:53:42;;;;;;;19.00;4.70;;;12.10;99.90;;;;;;5124996;27;20224;-76
2023/05/26 07:56:09;;;;;;;20.53;4.63;;;12.10;99.90;;;;;;5119036;27;20653;-76
2023/05/26 07:58:38;;;;;;;25.87;4.97;;;12.10;99.90;;;;;;5123286;27;20236;-75
2023/05/26 08:01:06;;;;;;;16.73;5.13;;;12.00;99.90;;;;;;5137660;27;20224;-78
2023/05/26 08:03:33;;;;;;;19.37;5.27;;;12.20;99.90;;;;;;5128140;27;20216;-78
2023/05/26 08:06:01;;;;;;;23.97;4.97;;;12.30;99.90;;;;;;5123126;27;20686;-77
2023/05/26 08:08:28;;;;;;;21.63;5.30;;;12.10;99.90;;;;;;5128506;27;20201;-76
2023/05/26 08:10:55;;;;;;;23.47;4.43;;;11.90;99.90;;;;;;5131136;27;20292;-77
2023/05/26 08:13:22;;;;;;;21.13;5.40;;;12.20;99.90;;;;;;5131688;27;20227;-77
2023/05/26 08:15:49;;;;;;;19.47;5.10;;;12.10;99.90;;;;;;5137516;27;20274;-77
2023/05/26 08:18:16;;;;;;;18.43;4.63;;;12.30;99.90;;;;;;5146076;27;20219;-78
2023/05/26 08:20:42;;;;;;;20.90;4.70;;;12.40;99.90;;;;;;5129693;27;20204;-76
2023/05/26 08:23:11;;;;;;;20.47;5.23;;;12.70;99.90;;;;;;5120055;27;20215;-78
2023/05/26 08:25:37;;;;;;;17.57;4.77;;;12.70;99.90;;;;;;5129739;27;20223;-78
2023/05/26 08:28:04;;;;;;;17.03;4.37;;;12.80;99.90;;;;;;5125238;27;20225;-78
2023/05/26 08:30:31;;;;;;;21.83;4.87;;;12.60;99.90;;;;;;5132662;27;20220;-78
2023/05/26 08:32:58;;;;;;;19.73;5.40;;;12.50;99.90;;;;;;5137331;27;20219;-78
2023/05/26 08:35:28;;;;;;;20.30;4.67;;;12.40;99.90;;;;;;5121325;27;20220;-77
2023/05/26 08:37:55;;;;;;;22.33;5.60;;;12.60;99.90;;;;;;5123521;27;20212;-77
2023/05/26 08:40:23;;;;;;;18.13;4.33;;;12.80;99.90;;;;;;5125747;27;20229;-78
2023/05/26 08:42:54;;;;;;;17.93;4.67;;;12.60;99.90;;;;;;5119125;27;20660;-77
2023/05/26 08:45:21;;;;;;;22.33;4.13;;;12.60;99.90;;;;;;5127289;27;20307;-78
2023/05/26 08:47:49;;;;;;;15.97;4.37;;;12.90;99.90;;;;;;5127340;27;20303;-79
2023/05/26 08:50:17;;;;;;;16.27;4.17;;;13.20;99.90;;;;;;5119669;27;20296;-77
2023/05/26 08:52:46;;;;;;;19.87;4.30;;;13.30;99.90;;;;;;5122612;27;20260;-78
2023/05/26 08:55:13;;;;;;;14.77;3.93;;;13.60;99.90;;;;;;5132453;27;20228;-78
2023/05/26 08:57:42;;;;;;;15.40;4.03;;;13.90;99.90;;;;;;5119348;27;20219;-79
2023/05/26 09:00:12;;;;;;;20.90;5.07;;;14.10;99.90;;;;;;5131631;27;20196;-78
2023/05/26 09:02:40;;;;;;;20.77;5.17;;;14.30;99.90;;;;;;5137340;27;20606;-78
2023/05/26 09:05:07;;;;;;;22.83;4.87;;;14.60;99.90;;;;;;5131598;27;20692;-78
2023/05/26 09:07:34;;;;;;;17.13;4.60;;;15.10;99.90;;;;;;5128202;27;20216;-78
2023/05/26 09:10:24;;;;;;;17.33;4.10;;;15.40;99.90;;;;;;5129776;27;20208;-77
2023/05/26 09:13:03;;;;;;;18.70;4.43;;;14.80;99.90;;;;;;5126611;27;20672;-78
2023/05/26 09:15:30;;;;;;;17.87;4.10;;;15.00;99.90;;;;;;5136441;27;20597;-79
2023/05/26 09:18:03;;;;;;;16.63;4.90;;;15.00;99.90;;;;;;5137193;27;20727;-77
2023/05/26 09:20:30;;;;;;;18.00;4.30;;;15.50;99.90;;;;;;5122995;27;20200;-77
2023/05/26 09:22:57;;;;;;;12.52;3.83;;;15.80;99.90;;;;;;5143420;27;20207;-78
2023/05/26 09:25:25;;;;;;;16.30;4.50;;;15.50;99.90;;;;;;5146262;27;20475;-79
2023/05/26 09:27:51;;;;;;;15.93;4.80;;;16.40;99.90;;;;;;5139065;27;20283;-79
2023/05/26 09:30:20;;;;;;;16.42;4.72;;;16.80;99.90;;;;;;5152644;27;20204;-78
2023/05/26 09:32:46;;;;;;;15.73;4.05;;;17.30;99.90;;;;;;5132935;27;20200;-79
2023/05/26 09:35:13;;;;;;;18.02;4.53;;;16.70;99.90;;;;;;5138584;27;20235;-78
2023/05/26 09:37:44;;;;;;;21.52;5.30;;;16.80;99.90;;;;;;5147046;27;20200;-78
2023/05/26 09:40:14;;;;;;;15.82;4.30;;;17.10;99.90;;;;;;5144390;27;20651;-78
2023/05/26 09:42:48;;;;;;;16.50;4.63;;;17.20;99.90;;;;;;5132233;27;20260;-79
2023/05/26 09:45:16;;;;;;;20.27;5.18;;;17.10;99.90;;;;;;5145583;27;20219;-77
2023/05/26 09:47:44;;;;;;;18.02;4.78;;;17.40;99.90;;;;;;5147303;27;20226;-78
2023/05/26 09:50:11;;;;;;;15.60;4.55;;;17.60;99.90;;;;;;5149714;27;20203;-78
2023/05/26 09:52:38;;;;;;;16.42;4.25;;;17.50;99.90;;;;;;5149196;27;20220;-79
2023/05/26 09:55:06;;;;;;;17.95;4.88;;;17.40;99.90;;;;;;5144609;27;20717;-78
2023/05/26 09:57:36;;;;;;;16.25;4.25;;;17.50;99.90;;;;;;5138143;27;20279;-78
2023/05/26 10:00:07;;;;;;;14.35;4.30;;;18.10;99.90;;;;;;5133915;28;20211;-78
2023/05/26 10:02:35;;;;;;;14.75;4.40;;;18.20;99.90;;;;;;5126629;28;20283;-78
2023/05/26 10:05:05;;;;;;;16.52;4.45;;;18.10;99.90;;;;;;5129705;28;20232;-77
2023/05/26 10:07:32;;;;;;;14.65;3.90;;;18.20;99.90;;;;;;5134459;27;20219;-78
2023/05/26 10:10:00;;;;;;;17.85;4.40;;;18.40;1.00;;;;;;5141604;27;20295;-78
2023/05/26 10:12:29;;;;;;;14.98;4.65;;;18.40;1.00;;;;;;5145245;27;20192;-76
2023/05/26 10:14:56;;;;;;;18.95;4.95;;;18.50;1.00;;;;;;5146005;27;20602;-77
2023/05/26 10:17:23;;;;;;;18.73;5.20;;;18.80;99.90;;;;;;5125620;27;20318;-78
2023/05/26 10:19:51;;;;;;;16.40;4.30;;;18.80;1.00;;;;;;5142114;27;20270;-78
2023/05/26 10:22:26;;;;;;;15.77;4.50;;;18.40;1.00;;;;;;5134565;27;20281;-78
2023/05/26 10:25:00;;;;;;;15.85;4.40;;;18.50;99.90;;;;;;5132355;28;20568;-79
2023/05/26 10:27:32;;;;;;;19.98;4.40;;;18.50;36.30;;;;;;5151817;27;20216;-79
2023/05/26 10:30:08;;;;;;;15.55;4.20;;;18.40;1.00;;;;;;5140831;27;20238;-79
2023/05/26 10:32:49;;;;;;;15.73;3.75;;;18.70;1.00;;;;;;5134811;27;20604;-79
2023/05/26 10:35:23;;;;;;;15.52;4.30;;;18.20;99.90;;;;;;5143318;27;20223;-79
2023/05/26 10:38:14;;;;;;;14.75;4.28;;;18.70;99.90;;;;;;5153839;27;20222;-79
2023/05/26 10:40:44;;;;;;;15.88;3.90;;;18.80;37.30;;;;;;5140778;27;20203;-77
2023/05/26 10:43:19;;;;;;;14.23;4.72;;;18.90;1.00;;;;;;5144859;27;20204;-78
2023/05/26 10:45:47;;;;;;;11.45;3.72;;;19.10;1.00;;;;;;5142236;27;20243;-77
2023/05/26 10:48:17;;;;;;;16.33;4.53;;;19.10;1.00;;;;;;5137458;27;20303;-77
2023/05/26 10:51:23;;;;;;;13.63;3.90;;;19.30;1.00;;;;;;5129817;27;20663;-79
2023/05/26 10:53:53;;;;;;;11.20;3.60;;;19.10;99.90;;;;;;5140758;27;20247;-78
2023/05/26 10:56:25;;;;;;;10.98;3.40;;;19.60;99.90;;;;;;5138053;27;20204;-77
2023/05/26 10:58:57;;;;;;;11.95;3.50;;;18.90;1.00;;;;;;5131160;27;20568;-76
2023/05/26 11:01:29;;;;;;;12.63;3.72;;;19.40;1.00;;;;;;5132709;27;20201;-77
2023/05/26 11:03:58;;;;;;;12.20;3.58;;;19.60;1.00;;;;;;5147744;27;20302;-78
2023/05/26 11:06:35;;;;;;;15.02;4.43;;;19.60;1.00;;;;;;5145293;27;20243;-78
2023/05/26 11:09:08;;;;;;;17.83;4.07;;;19.40;1.00;;;;;;5141109;27;20295;-77
2023/05/26 11:11:38;;;;;;;12.18;3.67;;;19.70;1.00;;;;;;5141692;27;20982;-77
2023/05/26 11:14:09;;;;;;;13.63;3.85;;;19.80;99.90;;;;;;5136318;27;20229;-77
2023/05/26 11:16:37;;;;;;;11.70;3.75;;;19.70;99.90;;;;;;5135268;27;20204;-78
2023/05/26 11:19:06;;;;;;;11.00;3.30;;;19.20;99.90;;;;;;5136428;27;20203;-77
2023/05/26 11:21:34;;;;;;;12.05;3.65;;;19.80;43.10;;;;;;5137845;27;20204;-78
2023/05/26 11:24:07;;;;;;;12.52;2.97;;;18.90;1.00;;;;;;5138712;27;20263;-79
2023/05/26 11:26:34;;;;;;;13.00;3.92;;;18.70;1.00;;;;;;5137474;27;20219;-77
2023/05/26 11:29:02;;;;;;;11.20;3.53;;;18.60;1.00;;;;;;5135739;27;20216;-77
2023/05/26 11:31:30;;;;;;;11.95;2.92;;;19.40;1.00;;;;;;5129128;27;20218;-77
2023/05/26 11:33:58;;;;;;;13.60;3.08;;;20.20;1.00;;;;;;5129436;27;20238;-79
2023/05/26 11:36:25;;;;;;;11.77;3.75;;;19.50;1.00;;;;;;5138653;27;20207;-77
2023/05/26 11:38:56;;;;;;;11.77;4.30;;;19.20;1.00;;;;;;5142122;27;20685;-75
2023/05/26 11:41:26;;;;;;;11.25;3.42;;;19.40;1.00;;;;;;5145492;27;20670;-76
2023/05/26 11:43:54;;;;;;;8.25;3.47;;;18.70;99.90;;;;;;5136942;27;20220;-80
2023/05/26 11:46:22;;;;;;;8.27;2.83;;;19.30;99.90;;;;;;5148713;27;20299;-79
2023/05/26 11:48:50;;;;;;;9.77;3.42;;;18.60;99.90;;;;;;5146768;27;20632;-79
2023/05/26 11:51:19;;;;;;;11.63;3.47;;;18.80;75.30;;;;;;5141980;27;20232;-74
2023/05/26 11:53:47;;;;;;;13.80;3.78;;;19.30;99.90;;;;;;5136550;27;20220;-78
2023/05/26 11:56:15;;;;;;;17.38;4.75;;;19.50;99.90;;;;;;5141958;27;20689;-78
2023/05/26 11:58:45;;;;;;;14.75;3.55;;;18.70;91.80;;;;;;5143015;27;20192;-78
2023/05/26 12:01:13;;;;;;;9.23;4.00;;;18.80;45.30;;;;;;5136133;27;20196;-78
2023/05/26 12:03:41;;;;;;;9.18;3.30;;;19.90;1.00;;;;;;5153085;27;20219;-77
2023/05/26 12:06:16;;;;;;;10.05;3.55;;;20.10;1.00;;;;;;5131743;27;20217;-77
2023/05/26 12:08:45;;;;;;;14.25;3.25;;;20.40;1.00;;;;;;5142305;27;20210;-77
2023/05/26 12:11:20;;;;;;;10.70;2.92;;;19.50;1.00;;;;;;5124221;27;20204;-75
2023/05/26 12:13:55;;;;;;;8.80;3.17;;;20.20;1.00;;;;;;5141034;27;20374;-76
2023/05/26 12:16:25;;;;;;;12.02;3.10;;;20.10;1.00;;;;;;5145985;27;20204;-76
2023/05/26 12:18:53;;;;;;;10.13;3.10;;;19.80;1.00;;;;;;5143127;27;20200;-77
2023/05/26 12:21:20;;;;;;;10.48;3.13;;;20.30;1.00;;;;;;5138291;27;20212;-78
2023/05/26 12:23:48;;;;;;;10.73;3.28;;;19.30;99.90;;;;;;5134559;27;20220;-77
2023/05/26 12:26:15;;;;;;;11.65;3.38;;;19.90;99.90;;;;;;5140094;27;20218;-76
2023/05/26 12:28:43;;;;;;;10.52;3.30;;;18.80;99.90;;;;;;5151133;27;20220;-76
2023/05/26 12:31:11;;;;;;;11.18;3.30;;;18.40;99.90;;;;;;5134713;27;20712;-79
2023/05/26 12:33:39;;;;;;;13.05;3.75;;;18.80;99.90;;;;;;5136749;27;20227;-77
2023/05/26 12:36:06;;;;;;;12.10;3.28;;;19.20;99.90;;;;;;5132850;27;20236;-77
2023/05/26 12:38:43;;;;;;;11.20;3.30;;;20.20;99.90;;;;;;5140124;27;20211;-78
2023/05/26 12:41:10;;;;;;;12.30;3.65;;;19.00;1.00;;;;;;5153597;27;20230;-79
2023/05/26 12:43:37;;;;;;;9.80;2.72;;;18.40;99.90;;;;;;5135982;27;20531;-78
2023/05/26 12:46:04;;;;;;;13.50;3.58;;;19.30;29.80;;;;;;5142504;27;20199;-78
2023/05/26 12:48:32;;;;;;;15.18;3.45;;;18.70;1.00;;;;;;5142923;27;20337;-78